Time;durP1;ratioP1;P1;durP2;ratioP2;P2;SDS_P1;SDS_P2;PMS_P1;PMS_P2;Temp;Humidity;BMP_temperature;BMP_pressure;BME280_temperature;BME280_humidity;BME280_pressure;Samples;Min_cycle;Max_cycle;Signal;HPM_P1;HPM_P2
2021/12/07 00:02:02;;;;;;;2.03;1.83;;;4.60;99.90;;;;;;5019252;28;20192;-45
2021/12/07 00:04:28;;;;;;;3.10;2.73;;;4.50;99.90;;;;;;5020833;28;20442;-43
2021/12/07 00:06:55;;;;;;;2.13;1.90;;;4.50;99.90;;;;;;5020875;28;20466;-43
2021/12/07 00:09:22;;;;;;;2.27;2.07;;;4.50;99.90;;;;;;5021856;28;20451;-46
2021/12/07 00:11:49;;;;;;;2.40;1.93;;;4.30;99.90;;;;;;5016898;28;20446;-42
2021/12/07 00:14:23;;;;;;;2.33;2.13;;;4.30;99.90;;;;;;5020361;28;20514;-47
2021/12/07 00:16:49;;;;;;;2.87;2.10;;;4.30;99.90;;;;;;5021271;28;20439;-43
2021/12/07 00:19:15;;;;;;;4.27;2.33;;;4.30;99.90;;;;;;5020308;28;20467;-45
2021/12/07 00:21:43;;;;;;;2.70;2.30;;;4.30;99.90;;;;;;5019962;28;20437;-42
2021/12/07 00:24:10;;;;;;;2.90;2.30;;;4.20;99.90;;;;;;5015901;28;20594;-46
2021/12/07 00:26:37;;;;;;;3.73;3.37;;;4.10;99.90;;;;;;5019418;28;20467;-46
2021/12/07 00:29:03;;;;;;;2.80;2.13;;;4.10;99.90;;;;;;5018946;28;20447;-46
2021/12/07 00:31:38;;;;;;;3.77;2.50;;;4.10;99.90;;;;;;5020074;28;20984;-43
2021/12/07 00:36:35;;;;;;;3.00;2.53;;;4.00;99.90;;;;;;5018537;28;20455;-44
2021/12/07 00:39:03;;;;;;;2.93;2.20;;;4.00;99.90;;;;;;5022926;28;20936;-43
2021/12/07 00:41:28;;;;;;;2.83;2.10;;;4.00;99.90;;;;;;5025738;28;20438;-44
2021/12/07 00:43:56;;;;;;;2.70;1.63;;;4.00;99.90;;;;;;5024576;28;20469;-43
2021/12/07 00:46:23;;;;;;;2.47;1.77;;;4.00;99.90;;;;;;5023453;28;20196;-47
2021/12/07 00:48:49;;;;;;;3.40;2.50;;;4.00;99.90;;;;;;5021494;28;20497;-43
2021/12/07 00:51:15;;;;;;;2.23;2.03;;;3.90;99.90;;;;;;5022951;28;20439;-42
2021/12/07 00:53:40;;;;;;;3.30;2.47;;;3.90;99.90;;;;;;5025121;28;20189;-43
2021/12/07 00:56:06;;;;;;;2.60;2.07;;;4.00;99.90;;;;;;5024515;28;20614;-44
2021/12/07 00:58:33;;;;;;;2.33;2.13;;;4.00;99.90;;;;;;5022674;28;20203;-48
2021/12/07 01:01:02;;;;;;;3.80;2.80;;;4.00;99.90;;;;;;5026084;28;20422;-45
2021/12/07 01:03:29;;;;;;;3.83;2.20;;;4.10;99.90;;;;;;5021801;28;20446;-45
2021/12/07 01:06:06;;;;;;;3.47;2.30;;;4.10;99.90;;;;;;5021991;28;21095;-45
2021/12/07 01:24:55;;;;;;;3.10;2.80;;;4.20;99.90;;;;;;5024042;28;21002;-47
2021/12/07 01:27:22;;;;;;;3.07;2.63;;;4.20;99.90;;;;;;5023830;28;21041;-44
2021/12/07 01:30:00;;;;;;;3.43;2.30;;;4.20;99.90;;;;;;5022649;28;20463;-44
2021/12/07 01:32:50;;;;;;;3.10;2.57;;;4.20;99.90;;;;;;5023565;28;20420;-44
2021/12/07 01:37:58;;;;;;;2.30;2.10;;;4.30;99.90;;;;;;5021501;28;20449;-50
2021/12/07 01:59:37;;;;;;;4.23;2.57;;;4.50;99.90;;;;;;5021301;28;20459;-45
2021/12/07 02:02:08;;;;;;;3.27;2.60;;;4.50;99.90;;;;;;5018093;28;20442;-45
2021/12/07 02:04:35;;;;;;;4.70;2.33;;;4.60;99.90;;;;;;5024299;28;20407;-45
2021/12/07 02:07:01;;;;;;;2.90;2.53;;;4.60;99.90;;;;;;5022110;28;20897;-46
2021/12/07 02:09:27;;;;;;;2.63;1.93;;;4.60;99.90;;;;;;5026384;28;20427;-45
2021/12/07 02:11:59;;;;;;;3.27;2.73;;;4.60;99.90;;;;;;5024605;28;20189;-44
2021/12/07 02:14:25;;;;;;;4.83;2.57;;;4.60;99.90;;;;;;5019642;28;20522;-43
2021/12/07 02:16:54;;;;;;;2.67;2.20;;;4.50;99.90;;;;;;5023645;28;20427;-43
2021/12/07 02:19:20;;;;;;;3.30;2.60;;;4.50;99.90;;;;;;5021767;28;20458;-44
2021/12/07 02:21:46;;;;;;;3.10;2.80;;;4.60;99.90;;;;;;5018331;28;20427;-44
2021/12/07 02:24:12;;;;;;;5.33;2.70;;;4.60;99.90;;;;;;5021238;28;20967;-47
2021/12/07 02:26:38;;;;;;;4.33;2.63;;;4.60;99.90;;;;;;5021795;28;20466;-46
2021/12/07 02:29:04;;;;;;;2.90;2.27;;;4.60;99.90;;;;;;5021496;28;20216;-43
2021/12/07 02:31:30;;;;;;;2.10;1.90;;;4.60;99.90;;;;;;5000661;28;20224;-43
2021/12/07 02:33:56;;;;;;;3.00;2.10;;;4.60;99.90;;;;;;5024093;28;21059;-43
2021/12/07 02:36:22;;;;;;;8.50;2.33;;;4.60;99.90;;;;;;5006637;28;21196;-44
2021/12/07 02:38:49;;;;;;;2.07;1.87;;;4.60;99.90;;;;;;5019985;28;21451;-44
2021/12/07 02:41:15;;;;;;;3.10;2.33;;;4.60;99.90;;;;;;5023358;28;20435;-43
2021/12/07 02:43:41;;;;;;;2.57;2.37;;;4.60;99.90;;;;;;5020537;28;21216;-43
2021/12/07 02:46:06;;;;;;;2.40;1.90;;;4.60;99.90;;;;;;5019739;28;20234;-44
2021/12/07 02:48:32;;;;;;;3.70;2.63;;;4.50;99.90;;;;;;5020160;28;20454;-42
2021/12/07 02:50:58;;;;;;;3.50;2.43;;;4.50;99.90;;;;;;5018260;28;20176;-43
2021/12/07 02:53:26;;;;;;;3.90;2.50;;;4.50;99.90;;;;;;5020343;28;20192;-43
2021/12/07 02:55:54;;;;;;;4.23;3.40;;;4.40;99.90;;;;;;5020217;28;20454;-45
2021/12/07 02:58:20;;;;;;;3.00;2.67;;;4.50;99.90;;;;;;5019300;28;20462;-43
2021/12/07 03:00:56;;;;;;;2.63;2.33;;;4.40;99.90;;;;;;5018854;28;20435;-43
2021/12/07 03:03:21;;;;;;;3.17;2.40;;;4.50;99.90;;;;;;5019611;28;20192;-44
2021/12/07 03:06:11;;;;;;;3.50;2.40;;;4.40;99.90;;;;;;5019659;28;20463;-43
2021/12/07 03:27:38;;;;;;;3.33;3.03;;;4.70;99.90;;;;;;5019798;28;20453;-44
2021/12/07 03:30:06;;;;;;;2.60;1.97;;;4.60;99.90;;;;;;5017627;28;20424;-45
2021/12/07 03:32:32;;;;;;;2.83;2.57;;;4.60;99.90;;;;;;5016718;28;20192;-42
2021/12/07 03:34:57;;;;;;;2.27;2.00;;;4.60;99.90;;;;;;5014311;28;20454;-43
2021/12/07 03:37:23;;;;;;;4.57;2.40;;;4.60;99.90;;;;;;5018757;28;20867;-43
2021/12/07 03:39:49;;;;;;;3.00;2.37;;;4.50;99.90;;;;;;5019739;28;20184;-45
2021/12/07 03:42:15;;;;;;;2.63;2.33;;;4.60;99.90;;;;;;5020985;28;20182;-45
2021/12/07 03:44:41;;;;;;;4.80;2.47;;;4.60;99.90;;;;;;5018312;28;20195;-45
2021/12/07 03:47:06;;;;;;;3.70;2.90;;;4.60;99.90;;;;;;5016758;28;20470;-43
2021/12/07 03:49:32;;;;;;;2.30;2.10;;;4.60;99.90;;;;;;5019808;28;20181;-43
2021/12/07 03:51:58;;;;;;;4.30;2.40;;;4.70;99.90;;;;;;5018788;28;20184;-43
2021/12/07 03:54:23;;;;;;;2.93;2.60;;;4.70;99.90;;;;;;5002222;28;20185;-42
2021/12/07 03:56:49;;;;;;;3.10;2.37;;;4.70;99.90;;;;;;5020726;28;20209;-43
2021/12/07 03:59:14;;;;;;;3.20;2.90;;;4.70;99.90;;;;;;5018481;28;20246;-43
2021/12/07 04:01:40;;;;;;;3.43;2.70;;;4.70;99.90;;;;;;5021295;28;20204;-43
2021/12/07 04:04:06;;;;;;;4.07;3.00;;;4.70;99.90;;;;;;5019186;28;20177;-44
2021/12/07 04:06:32;;;;;;;2.97;2.60;;;4.70;99.90;;;;;;5018282;28;20295;-44
2021/12/07 04:08:57;;;;;;;2.57;2.33;;;4.70;99.90;;;;;;5020634;28;20196;-43
2021/12/07 04:11:23;;;;;;;2.90;2.60;;;4.70;99.90;;;;;;4999506;28;20900;-48
2021/12/07 04:13:49;;;;;;;5.37;2.67;;;4.70;99.90;;;;;;5018138;28;20181;-47
2021/12/07 04:16:16;;;;;;;2.73;2.03;;;4.70;99.90;;;;;;5016144;28;20211;-46
2021/12/07 04:18:42;;;;;;;2.83;2.10;;;4.70;99.90;;;;;;5017049;28;20220;-46
2021/12/07 04:21:08;;;;;;;3.90;2.60;;;4.70;99.90;;;;;;5018549;28;20824;-47
2021/12/07 04:23:35;;;;;;;6.33;3.13;;;4.70;99.90;;;;;;4999175;28;20200;-45
2021/12/07 04:26:06;;;;;;;5.77;2.90;;;4.70;99.90;;;;;;5019386;28;22904;-43
2021/12/07 04:28:31;;;;;;;4.03;2.70;;;4.70;99.90;;;;;;5017298;28;20508;-47
2021/12/07 04:30:57;;;;;;;7.03;2.93;;;4.80;99.90;;;;;;5018031;28;21031;-49
2021/12/07 04:33:23;;;;;;;3.57;2.70;;;4.80;99.90;;;;;;5017608;28;20573;-47
2021/12/07 04:35:50;;;;;;;3.57;2.40;;;4.80;99.90;;;;;;5017916;28;20268;-45
2021/12/07 04:38:17;;;;;;;3.73;3.20;;;4.90;99.90;;;;;;5020080;28;20571;-45
2021/12/07 04:40:43;;;;;;;3.43;2.73;;;4.90;99.90;;;;;;5016465;28;20446;-43
2021/12/07 04:43:10;;;;;;;3.50;2.80;;;4.90;99.90;;;;;;5013591;28;20466;-45
2021/12/07 04:59:05;;;;;;;4.13;2.40;;;5.00;99.90;;;;;;5018003;28;20510;-44
2021/12/07 05:01:32;;;;;;;3.47;2.20;;;5.10;99.90;;;;;;5018534;28;20442;-43
2021/12/07 05:04:03;;;;;;;2.63;2.00;;;5.10;99.90;;;;;;5016911;28;20836;-43
2021/12/07 05:06:31;;;;;;;2.40;1.70;;;5.10;99.90;;;;;;5020505;28;20458;-43
2021/12/07 05:09:19;;;;;;;2.43;2.10;;;5.10;99.90;;;;;;5017701;28;20801;-46
2021/12/07 05:14:36;;;;;;;3.73;2.43;;;5.10;99.90;;;;;;4966723;28;20419;-43
2021/12/07 05:39:01;;;;;;;3.00;1.90;;;5.20;99.90;;;;;;5022837;28;20497;-42
2021/12/07 05:41:27;;;;;;;3.23;2.27;;;5.10;99.90;;;;;;5023128;28;20443;-43
2021/12/07 05:43:52;;;;;;;7.30;2.33;;;5.20;99.90;;;;;;5021465;28;20556;-43
2021/12/07 05:46:18;;;;;;;2.80;2.37;;;5.20;99.90;;;;;;5023388;28;20208;-44
2021/12/07 05:48:44;;;;;;;2.83;1.80;;;5.30;99.90;;;;;;5019913;28;20572;-46
2021/12/07 05:51:09;;;;;;;4.20;2.23;;;5.20;99.90;;;;;;5021027;28;20230;-46
2021/12/07 05:53:35;;;;;;;2.10;1.90;;;5.20;99.90;;;;;;5022848;28;20219;-43
2021/12/07 05:56:02;;;;;;;2.40;1.77;;;5.30;99.90;;;;;;5023532;28;20263;-43
2021/12/07 05:58:27;;;;;;;2.60;2.13;;;5.30;99.90;;;;;;5022549;28;20216;-45
2021/12/07 06:00:57;;;;;;;5.83;2.23;;;5.30;99.90;;;;;;5021828;28;20519;-43
2021/12/07 06:03:24;;;;;;;4.63;2.90;;;5.30;99.90;;;;;;5021186;28;20283;-43
2021/12/07 06:05:51;;;;;;;4.00;2.30;;;5.30;99.90;;;;;;5020881;28;21099;-44
2021/12/07 06:08:16;;;;;;;5.73;2.20;;;5.20;99.90;;;;;;5022868;28;20512;-44
2021/12/07 06:10:42;;;;;;;2.57;2.00;;;5.30;99.90;;;;;;5023357;28;20427;-44
2021/12/07 06:13:08;;;;;;;5.97;2.40;;;5.20;99.90;;;;;;5021512;28;20196;-43
2021/12/07 06:15:36;;;;;;;4.40;2.73;;;5.20;99.90;;;;;;5020579;28;20459;-44
2021/12/07 06:18:02;;;;;;;6.23;2.03;;;5.20;99.90;;;;;;5023164;28;20208;-45
2021/12/07 06:20:29;;;;;;;5.43;2.30;;;5.20;99.90;;;;;;5019638;28;20440;-43
2021/12/07 06:22:55;;;;;;;2.73;1.97;;;5.20;99.90;;;;;;5020208;28;20493;-44
2021/12/07 06:25:20;;;;;;;2.70;2.23;;;5.20;99.90;;;;;;5020121;28;20462;-43
2021/12/07 06:27:46;;;;;;;6.20;2.10;;;5.10;99.90;;;;;;5021566;28;20200;-44
2021/12/07 06:30:13;;;;;;;7.77;2.87;;;5.20;99.90;;;;;;5020693;28;20172;-44
2021/12/07 06:32:39;;;;;;;4.60;2.30;;;5.20;99.90;;;;;;5020334;28;20668;-44
2021/12/07 06:35:07;;;;;;;2.90;1.60;;;5.20;99.90;;;;;;5020011;28;20964;-44
2021/12/07 06:37:33;;;;;;;3.50;1.90;;;5.20;99.90;;;;;;5015015;28;20514;-43
2021/12/07 06:39:58;;;;;;;5.03;2.47;;;5.10;99.90;;;;;;5020551;28;20788;-44
2021/12/07 06:42:24;;;;;;;4.00;2.00;;;5.10;99.90;;;;;;5023399;28;20423;-45
2021/12/07 06:44:50;;;;;;;3.70;2.17;;;5.10;99.90;;;;;;5019539;28;20704;-46
2021/12/07 06:47:16;;;;;;;9.20;2.63;;;5.10;99.90;;;;;;5022359;28;20439;-43
2021/12/07 06:49:42;;;;;;;4.80;2.00;;;5.10;99.90;;;;;;5019631;28;20184;-43
2021/12/07 06:52:08;;;;;;;7.63;2.67;;;5.20;99.90;;;;;;5020549;28;20896;-43
2021/12/07 06:54:35;;;;;;;3.27;2.00;;;5.10;99.90;;;;;;5020695;28;20430;-47
2021/12/07 06:57:01;;;;;;;8.10;2.30;;;5.10;99.90;;;;;;5019600;28;20431;-43
2021/12/07 06:59:26;;;;;;;2.53;2.00;;;5.10;99.90;;;;;;5021549;28;20433;-44
2021/12/07 07:01:52;;;;;;;3.77;1.90;;;5.00;99.90;;;;;;5020049;28;20192;-44
2021/12/07 07:04:18;;;;;;;2.10;1.70;;;5.00;99.90;;;;;;5020350;28;20666;-47
2021/12/07 07:06:43;;;;;;;4.17;2.17;;;5.00;99.90;;;;;;5019732;28;20204;-45
2021/12/07 07:09:12;;;;;;;7.80;2.20;;;5.00;99.90;;;;;;5016985;28;20232;-44
2021/12/07 07:11:38;;;;;;;4.47;2.43;;;5.00;99.90;;;;;;5019320;28;20177;-43
2021/12/07 07:14:04;;;;;;;3.00;2.00;;;5.00;99.90;;;;;;5019163;28;20468;-43
2021/12/07 07:16:30;;;;;;;2.50;1.83;;;5.00;99.90;;;;;;5018532;28;20194;-46
2021/12/07 07:18:56;;;;;;;3.23;2.60;;;5.00;99.90;;;;;;5021272;28;20234;-48
2021/12/07 07:21:23;;;;;;;6.00;2.50;;;4.90;99.90;;;;;;5021084;28;20485;-44
2021/12/07 07:23:49;;;;;;;4.13;2.30;;;4.80;99.90;;;;;;5018377;28;20543;-43
2021/12/07 07:26:14;;;;;;;3.23;2.33;;;4.90;99.90;;;;;;5020446;28;20463;-45
2021/12/07 07:28:40;;;;;;;4.03;2.70;;;4.90;99.90;;;;;;5019889;28;20834;-45
2021/12/07 07:31:08;;;;;;;4.77;2.13;;;4.80;99.90;;;;;;5017322;28;20203;-48
2021/12/07 07:33:34;;;;;;;3.80;2.10;;;4.80;99.90;;;;;;5018347;28;20220;-45
2021/12/07 07:36:00;;;;;;;5.83;2.73;;;4.90;99.90;;;;;;5020922;28;20554;-46
2021/12/07 07:38:26;;;;;;;6.43;2.77;;;4.90;99.90;;;;;;5017351;28;20283;-48
2021/12/07 07:40:51;;;;;;;5.60;2.70;;;4.80;99.90;;;;;;5016419;28;20585;-46
2021/12/07 07:43:18;;;;;;;5.77;2.20;;;4.90;99.90;;;;;;5019650;28;20443;-46
2021/12/07 07:45:49;;;;;;;9.30;3.97;;;4.90;99.90;;;;;;5020243;28;20591;-43
2021/12/07 07:48:16;;;;;;;5.53;2.20;;;5.00;99.90;;;;;;5002337;28;20467;-46
2021/12/07 07:50:42;;;;;;;6.40;2.80;;;5.00;99.90;;;;;;5019110;28;20497;-44
2021/12/07 07:53:08;;;;;;;5.03;2.40;;;5.00;99.90;;;;;;5017455;28;20766;-49
2021/12/07 07:55:35;;;;;;;5.27;3.50;;;5.10;99.90;;;;;;5015121;28;20443;-43
2021/12/07 07:58:02;;;;;;;5.30;2.43;;;5.10;99.90;;;;;;5019917;28;20231;-44
2021/12/07 08:00:28;;;;;;;3.80;2.17;;;5.20;99.90;;;;;;5018525;28;20489;-47
2021/12/07 08:02:54;;;;;;;5.23;2.27;;;5.20;99.90;;;;;;5019306;28;20518;-46
2021/12/07 08:05:19;;;;;;;4.93;2.90;;;5.20;99.90;;;;;;5016828;28;20204;-45
2021/12/07 08:07:47;;;;;;;2.60;2.10;;;5.20;99.90;;;;;;5019437;28;20220;-48
2021/12/07 08:10:16;;;;;;;3.23;2.30;;;5.30;99.90;;;;;;5016475;28;20435;-46
2021/12/07 08:12:42;;;;;;;3.00;2.20;;;5.40;99.90;;;;;;5017673;28;20511;-47
2021/12/07 08:15:08;;;;;;;4.20;2.50;;;5.40;99.90;;;;;;5018163;28;20443;-45
2021/12/07 08:17:34;;;;;;;6.53;2.43;;;5.40;99.90;;;;;;5020017;28;20834;-48
2021/12/07 08:20:00;;;;;;;9.27;3.83;;;5.40;99.90;;;;;;4995265;28;20451;-46
2021/12/07 08:22:28;;;;;;;3.07;2.50;;;5.40;99.90;;;;;;5020059;28;20218;-46
2021/12/07 08:24:54;;;;;;;3.20;2.10;;;5.50;99.90;;;;;;5020321;28;20188;-43
2021/12/07 08:27:20;;;;;;;3.40;2.53;;;5.50;99.90;;;;;;5019181;28;20914;-43
2021/12/07 08:29:45;;;;;;;3.60;2.17;;;5.60;99.90;;;;;;5020981;28;20576;-43
2021/12/07 08:32:11;;;;;;;3.43;2.77;;;5.60;99.90;;;;;;5021178;28;20216;-45
2021/12/07 08:34:36;;;;;;;4.90;2.03;;;5.60;99.90;;;;;;5020140;28;20201;-45
2021/12/07 08:37:02;;;;;;;6.10;2.43;;;5.70;99.90;;;;;;5020807;28;20522;-45
2021/12/07 08:39:28;;;;;;;7.20;2.40;;;5.60;99.90;;;;;;5018403;28;20622;-47
2021/12/07 08:41:54;;;;;;;6.40;2.80;;;5.70;99.90;;;;;;5017561;28;20446;-45
2021/12/07 08:44:20;;;;;;;4.73;2.47;;;5.60;99.90;;;;;;5014911;28;20211;-48
2021/12/07 08:46:45;;;;;;;4.80;2.07;;;5.60;99.90;;;;;;5018618;28;20459;-47
2021/12/07 08:49:12;;;;;;;6.53;2.73;;;5.70;99.90;;;;;;5018965;28;20507;-43
2021/12/07 08:51:39;;;;;;;3.17;2.10;;;5.70;99.90;;;;;;5015391;28;20184;-48
2021/12/07 08:54:27;;;;;;;6.03;2.70;;;5.70;99.90;;;;;;5018908;28;20474;-44
2021/12/07 08:59:45;;;;;;;8.80;2.97;;;5.60;99.90;;;;;;5023365;28;20927;-43
2021/12/07 09:02:24;;;;;;;3.63;2.03;;;5.80;99.90;;;;;;5022368;28;20435;-48
2021/12/07 09:04:53;;;;;;;10.27;2.73;;;5.80;99.90;;;;;;5021011;28;20940;-44
2021/12/07 09:07:20;;;;;;;8.70;2.70;;;5.80;99.90;;;;;;5018639;28;20580;-48
2021/12/07 09:09:46;;;;;;;3.90;2.50;;;5.90;99.90;;;;;;5020479;28;20426;-48
2021/12/07 09:12:14;;;;;;;4.97;2.37;;;6.00;99.90;;;;;;5022433;28;20441;-45
2021/12/07 09:14:43;;;;;;;10.57;2.40;;;6.10;99.90;;;;;;5020738;28;21782;-49
2021/12/07 09:17:11;;;;;;;8.50;2.33;;;6.10;99.90;;;;;;5023003;28;20501;-47
2021/12/07 09:19:38;;;;;;;2.90;2.00;;;6.10;99.90;;;;;;5019971;28;20448;-46
2021/12/07 09:22:05;;;;;;;7.47;2.90;;;6.00;99.90;;;;;;5021628;28;20438;-43
2021/12/07 09:24:31;;;;;;;8.93;2.70;;;6.10;99.90;;;;;;5020284;28;20541;-45
2021/12/07 09:26:57;;;;;;;6.07;3.60;;;6.10;99.90;;;;;;5023172;28;20520;-45
2021/12/07 09:29:22;;;;;;;7.53;2.80;;;6.10;99.90;;;;;;5022992;28;20437;-54
2021/12/07 09:31:49;;;;;;;8.53;2.37;;;6.10;99.90;;;;;;5018324;28;20436;-43
2021/12/07 09:34:14;;;;;;;4.07;2.83;;;6.20;99.90;;;;;;5022138;28;20224;-47
2021/12/07 09:36:41;;;;;;;14.13;3.53;;;6.10;99.90;;;;;;5021781;28;20493;-49
2021/12/07 09:39:09;;;;;;;9.87;2.70;;;6.20;99.90;;;;;;5024760;28;20254;-46
2021/12/07 09:41:35;;;;;;;4.90;2.47;;;6.20;99.90;;;;;;5018002;28;20568;-44
2021/12/07 09:44:01;;;;;;;5.53;2.40;;;6.20;99.90;;;;;;5020865;28;20925;-46
2021/12/07 09:46:27;;;;;;;6.10;2.30;;;6.20;99.90;;;;;;5021485;28;20663;-45
2021/12/07 09:48:53;;;;;;;3.93;2.50;;;6.20;99.90;;;;;;5019352;28;20468;-43
2021/12/07 09:51:21;;;;;;;5.73;2.37;;;6.20;99.90;;;;;;5020985;28;20432;-43
2021/12/07 09:53:48;;;;;;;7.93;2.83;;;6.10;99.90;;;;;;5020145;28;20216;-42
2021/12/07 09:56:15;;;;;;;6.13;2.60;;;6.10;99.90;;;;;;5021310;28;20451;-46
2021/12/07 09:58:41;;;;;;;6.23;3.07;;;6.10;99.90;;;;;;5018392;28;20454;-47
2021/12/07 10:01:08;;;;;;;9.83;3.00;;;6.10;99.90;;;;;;5022541;28;20436;-43
2021/12/07 10:03:35;;;;;;;5.20;2.37;;;6.10;99.90;;;;;;5018530;28;20466;-45
2021/12/07 10:06:00;;;;;;;5.60;2.73;;;6.20;99.90;;;;;;5020716;28;20468;-48
2021/12/07 10:08:26;;;;;;;6.43;2.40;;;6.20;99.90;;;;;;5021538;28;20458;-43
2021/12/07 10:10:55;;;;;;;10.03;3.63;;;6.20;99.90;;;;;;5019324;28;20204;-45
2021/12/07 10:13:23;;;;;;;5.03;2.60;;;6.20;99.90;;;;;;5019792;28;20261;-45
2021/12/07 10:15:50;;;;;;;6.87;2.93;;;6.20;99.90;;;;;;5020765;28;20471;-49
2021/12/07 10:18:21;;;;;;;9.07;2.93;;;6.20;99.90;;;;;;5022083;28;20554;-43
2021/12/07 10:20:53;;;;;;;6.03;2.77;;;6.20;99.90;;;;;;5019584;28;20443;-45
2021/12/07 10:23:19;;;;;;;4.63;3.80;;;6.30;99.90;;;;;;5017261;28;20797;-44
2021/12/07 10:25:54;;;;;;;9.53;2.57;;;6.30;99.90;;;;;;5022729;28;20467;-45
2021/12/07 10:28:27;;;;;;;7.30;2.70;;;6.40;99.90;;;;;;5020770;28;20215;-47
2021/12/07 10:30:55;;;;;;;5.43;2.60;;;6.40;99.90;;;;;;5018874;28;20438;-43
2021/12/07 10:33:36;;;;;;;3.47;2.27;;;6.40;99.90;;;;;;5020652;28;20451;-43
2021/12/07 10:36:12;;;;;;;4.27;2.40;;;6.50;99.90;;;;;;5021008;28;20485;-43
2021/12/07 10:38:39;;;;;;;8.00;3.93;;;6.50;99.90;;;;;;5020568;28;20994;-46
2021/12/07 10:41:07;;;;;;;6.93;3.00;;;6.50;99.90;;;;;;5001890;28;20467;-46
2021/12/07 10:44:06;;;;;;;4.87;3.60;;;6.60;99.90;;;;;;5019592;28;20828;-44
2021/12/07 10:46:45;;;;;;;5.50;2.50;;;6.60;99.90;;;;;;5018992;28;20636;-45
2021/12/07 10:49:46;;;;;;;4.20;2.80;;;6.70;99.90;;;;;;5018541;28;20449;-46
2021/12/07 10:52:17;;;;;;;8.30;2.63;;;6.70;99.90;;;;;;5023079;28;20987;-46
2021/12/07 10:54:52;;;;;;;3.63;2.03;;;6.70;99.90;;;;;;5014355;28;20462;-44
2021/12/07 10:57:29;;;;;;;2.83;1.90;;;6.70;99.90;;;;;;5020773;28;20455;-44
2021/12/07 11:00:15;;;;;;;8.03;2.37;;;6.80;99.90;;;;;;5022258;28;20645;-46
2021/12/07 11:02:43;;;;;;;4.50;2.50;;;6.80;99.90;;;;;;5024282;28;20479;-46
2021/12/07 11:05:13;;;;;;;7.40;2.17;;;6.90;99.90;;;;;;5019463;28;20439;-43
2021/12/07 11:07:39;;;;;;;6.40;2.53;;;6.90;99.90;;;;;;5021110;28;20806;-47
2021/12/07 11:10:21;;;;;;;3.83;2.20;;;6.90;99.90;;;;;;5019573;28;20787;-45
2021/12/07 11:13:14;;;;;;;2.90;1.80;;;7.00;99.90;;;;;;5020985;28;20986;-44
2021/12/07 11:15:56;;;;;;;4.33;1.90;;;7.20;99.90;;;;;;5017770;28;20431;-44
2021/12/07 11:18:26;;;;;;;5.20;2.50;;;7.20;99.90;;;;;;5012569;28;20525;-45
2021/12/07 11:20:54;;;;;;;7.20;3.80;;;7.40;99.90;;;;;;5003597;28;20508;-43
2021/12/07 11:23:28;;;;;;;4.00;1.90;;;7.40;99.90;;;;;;5017823;28;20836;-48
2021/12/07 11:31:37;;;;;;;3.53;2.67;;;7.50;99.90;;;;;;5019514;28;20426;-43
2021/12/07 11:34:11;;;;;;;3.53;2.00;;;7.70;99.90;;;;;;5018606;28;20534;-43
2021/12/07 11:37:02;;;;;;;3.23;2.27;;;7.70;99.90;;;;;;5019227;28;20518;-43
2021/12/07 11:39:38;;;;;;;10.80;3.60;;;7.80;99.90;;;;;;5017308;28;20443;-43
2021/12/07 11:42:18;;;;;;;5.40;1.80;;;8.00;99.90;;;;;;5017567;28;20454;-42
2021/12/07 11:44:54;;;;;;;6.27;2.67;;;8.20;99.90;;;;;;5015844;28;20435;-43
2021/12/07 11:47:28;;;;;;;5.03;2.10;;;8.60;99.90;;;;;;5016212;28;20474;-46
2021/12/07 11:49:55;;;;;;;6.70;2.00;;;8.90;99.90;;;;;;5017606;28;21041;-47
2021/12/07 11:52:22;;;;;;;4.73;1.90;;;9.30;99.90;;;;;;5017931;28;20513;-43
2021/12/07 11:54:48;;;;;;;3.93;2.00;;;9.60;99.90;;;;;;5017246;28;20469;-46
2021/12/07 11:57:18;;;;;;;2.40;2.17;;;9.80;99.90;;;;;;5016544;28;20540;-45
2021/12/07 11:59:46;;;;;;;4.07;2.33;;;9.60;99.90;;;;;;5017456;28;20443;-43
2021/12/07 12:02:13;;;;;;;3.47;2.27;;;9.60;99.90;;;;;;5017465;28;20978;-45
2021/12/07 12:04:41;;;;;;;6.00;2.33;;;9.50;99.90;;;;;;5016210;28;20857;-44
2021/12/07 12:07:09;;;;;;;6.70;2.30;;;9.50;99.90;;;;;;5014829;28;20467;-43
2021/12/07 12:09:38;;;;;;;3.33;2.20;;;9.40;99.90;;;;;;5018551;28;20435;-43
2021/12/07 12:12:22;;;;;;;4.90;2.63;;;10.10;99.90;;;;;;5017265;28;20887;-43
2021/12/07 12:14:52;;;;;;;7.60;2.40;;;11.20;99.90;;;;;;5017100;28;20526;-43
2021/12/07 12:17:54;;;;;;;3.93;1.90;;;12.10;99.90;;;;;;5020467;28;20526;-46
2021/12/07 12:20:38;;;;;;;4.20;2.27;;;12.60;99.90;;;;;;5013657;28;20473;-46
2021/12/07 12:23:21;;;;;;;8.13;2.70;;;12.90;99.90;;;;;;5015564;28;20795;-43
2021/12/07 12:25:56;;;;;;;4.63;2.33;;;13.40;99.90;;;;;;5018744;28;20998;-44
2021/12/07 12:28:48;;;;;;;3.90;2.10;;;13.10;99.90;;;;;;4996027;28;21010;-45
2021/12/07 12:31:15;;;;;;;5.27;2.20;;;12.80;99.90;;;;;;5015917;28;20434;-44
2021/12/07 12:33:53;;;;;;;10.47;2.40;;;13.70;99.90;;;;;;5020374;28;20967;-45
2021/12/07 12:36:20;;;;;;;4.13;2.37;;;14.00;99.90;;;;;;5020666;28;20434;-46
2021/12/07 12:39:08;;;;;;;4.30;2.00;;;13.80;99.90;;;;;;5025540;28;20501;-45
2021/12/07 12:41:36;;;;;;;2.47;1.83;;;14.10;99.90;;;;;;5023773;28;20445;-48
2021/12/07 12:44:10;;;;;;;6.43;2.50;;;13.90;99.90;;;;;;5021236;28;20979;-46
2021/12/07 12:46:37;;;;;;;9.70;2.70;;;13.60;99.90;;;;;;5023583;28;20821;-47
2021/12/07 12:49:07;;;;;;;4.47;1.80;;;13.50;99.90;;;;;;5021624;28;20496;-45
2021/12/07 12:51:50;;;;;;;5.03;2.60;;;13.40;99.90;;;;;;5015640;28;20439;-46
2021/12/07 12:54:20;;;;;;;3.00;2.27;;;13.40;99.90;;;;;;5022831;28;20416;-46
2021/12/07 12:56:46;;;;;;;3.10;2.00;;;13.60;99.90;;;;;;5022154;28;20531;-48
2021/12/07 12:59:12;;;;;;;6.40;2.20;;;13.50;99.90;;;;;;5018026;28;20905;-49
2021/12/07 13:01:40;;;;;;;4.03;2.40;;;13.20;99.90;;;;;;5017366;28;20791;-48
2021/12/07 13:04:14;;;;;;;11.47;2.87;;;13.50;99.90;;;;;;5024240;28;20435;-45
2021/12/07 13:06:47;;;;;;;5.23;2.20;;;13.40;99.90;;;;;;5021530;28;20822;-46
2021/12/07 13:09:19;;;;;;;3.90;2.20;;;12.90;99.90;;;;;;5022002;28;20828;-47
2021/12/07 13:11:52;;;;;;;11.83;3.80;;;12.40;99.90;;;;;;5019614;28;20474;-49
2021/12/07 13:14:24;;;;;;;3.10;2.13;;;11.30;99.90;;;;;;5022507;28;20799;-44
2021/12/07 13:17:08;;;;;;;5.73;2.60;;;10.70;99.90;;;;;;5019343;28;20462;-46
2021/12/07 13:20:04;;;;;;;5.03;2.83;;;10.50;99.90;;;;;;5021889;28;20496;-45
2021/12/07 13:22:52;;;;;;;5.03;2.13;;;10.50;99.90;;;;;;5024864;28;20427;-49
2021/12/07 13:25:31;;;;;;;4.03;2.33;;;10.30;99.90;;;;;;5020849;28;20439;-49
2021/12/07 13:28:22;;;;;;;4.80;2.20;;;10.30;99.90;;;;;;5022895;28;20463;-48
2021/12/07 13:30:55;;;;;;;4.03;2.23;;;10.20;99.90;;;;;;5023805;28;20434;-46
2021/12/07 13:33:30;;;;;;;4.10;2.20;;;10.00;99.90;;;;;;5020885;28;20651;-46
2021/12/07 13:35:56;;;;;;;4.07;2.07;;;10.00;99.90;;;;;;5020500;28;20481;-49
2021/12/07 13:38:25;;;;;;;9.03;2.20;;;9.80;99.90;;;;;;5006338;28;20455;-47
2021/12/07 13:41:12;;;;;;;14.73;2.67;;;9.50;99.90;;;;;;5023150;28;20455;-45
2021/12/07 13:43:39;;;;;;;3.50;2.00;;;9.50;99.90;;;;;;5001375;28;20444;-45
2021/12/07 13:46:18;;;;;;;4.90;1.77;;;9.60;99.90;;;;;;5003865;28;20468;-48
2021/12/07 13:48:46;;;;;;;5.00;2.60;;;9.70;99.90;;;;;;5023125;28;20531;-46
2021/12/07 13:51:14;;;;;;;3.17;1.90;;;9.70;99.90;;;;;;5023998;28;20498;-44
2021/12/07 13:53:42;;;;;;;2.60;2.03;;;9.70;99.90;;;;;;5022328;28;20434;-50
2021/12/07 13:56:08;;;;;;;4.30;2.07;;;9.80;99.90;;;;;;5023896;28;20447;-49
2021/12/07 13:58:57;;;;;;;2.23;1.80;;;9.80;99.90;;;;;;5023650;28;20462;-49
2021/12/07 14:01:27;;;;;;;2.20;1.80;;;9.80;99.90;;;;;;5015613;28;20443;-44
2021/12/07 14:03:53;;;;;;;3.90;2.00;;;9.70;99.90;;;;;;5019947;28;21148;-44
2021/12/07 14:06:19;;;;;;;7.90;2.43;;;9.70;99.90;;;;;;5021803;28;20566;-44
2021/12/07 14:08:45;;;;;;;4.20;2.30;;;9.80;99.90;;;;;;5019019;28;21013;-47
2021/12/07 14:11:14;;;;;;;3.00;1.83;;;9.80;99.90;;;;;;5018681;28;20184;-46
2021/12/07 14:13:45;;;;;;;5.00;1.90;;;9.70;99.90;;;;;;5019765;28;20275;-43
2021/12/07 14:16:13;;;;;;;3.60;2.40;;;9.60;99.90;;;;;;5019837;28;20500;-47
2021/12/07 14:18:43;;;;;;;4.23;2.00;;;9.60;99.90;;;;;;5021263;28;20467;-49
2021/12/07 14:21:09;;;;;;;5.13;1.90;;;9.40;99.90;;;;;;5022030;28;20450;-44
2021/12/07 14:23:38;;;;;;;4.43;2.73;;;9.60;99.90;;;;;;5022028;28;20928;-48
2021/12/07 14:26:09;;;;;;;6.33;2.60;;;9.50;99.90;;;;;;5022816;28;20501;-49
2021/12/07 14:28:44;;;;;;;5.37;2.00;;;9.40;99.90;;;;;;5019348;28;20489;-51
2021/12/07 14:31:17;;;;;;;2.40;2.07;;;9.50;99.90;;;;;;5021159;28;21101;-48
2021/12/07 14:33:47;;;;;;;5.73;1.93;;;9.40;99.90;;;;;;5020844;28;20851;-47
2021/12/07 14:36:21;;;;;;;6.67;2.47;;;9.30;99.90;;;;;;5022529;28;20444;-50
2021/12/07 14:38:49;;;;;;;6.33;3.07;;;9.20;99.90;;;;;;5021595;28;20451;-49
2021/12/07 14:41:19;;;;;;;6.63;2.67;;;9.10;99.90;;;;;;5020318;28;20442;-48
2021/12/07 14:43:44;;;;;;;4.70;2.40;;;9.30;99.90;;;;;;5019717;28;20493;-47
2021/12/07 14:46:13;;;;;;;5.40;2.43;;;9.40;99.90;;;;;;5021272;28;20507;-48
2021/12/07 14:48:39;;;;;;;7.33;2.53;;;9.50;99.90;;;;;;5019911;28;20291;-47
2021/12/07 14:51:09;;;;;;;4.50;2.50;;;9.40;99.90;;;;;;5001191;28;20473;-46
2021/12/07 14:53:44;;;;;;;3.47;2.33;;;9.30;99.90;;;;;;5020269;28;20435;-47